Fredericksburg, Virginia
Current Conditions -  °F | °C
As of 3:55 PM on Tuesday 27 Jan 2015 (Local Time) from KEZF Reporting Station
Scattered Clouds Scattered Clouds  
Wind Chill: -2°   Ceiling: Unl
Heat Index:   Visibility: 10mi
Dew Point: -4°   Wind: 12mph
Humidity: 64%   Direction: 340°NNW
Pressure: 29.83"   Gusts: 17mph
Location:  38.3°N, 77.46°W
Report Text: KEZF 272055Z AUTO 34010G15KT 10SM SCT050 SCT065 SCT075 03/M04 A2983 RMK AO2 T00261036
Loading
Personal Weather Stations






























Interactive Weather Map New forecast layout! Learn more

10-Day Weather Forecast

Advertisements
Track Severe Weather on mobile